sensor_id;sensor_type;location;lat;lon;timestamp;temperature;humidity
40249;DHT22;25969;49.970;11.062;2023-08-01T04:05:36;15.80;99.90
40249;DHT22;25969;49.970;11.062;2023-08-01T04:15:37;15.90;99.90
40249;DHT22;25969;49.970;11.062;2023-08-01T04:25:40;16.10;99.90
40249;DHT22;25969;49.970;11.062;2023-08-01T04:35:41;16.20;99.90
40249;DHT22;25969;49.970;11.062;2023-08-01T04:45:42;16.20;99.90
40249;DHT22;25969;49.970;11.062;2023-08-01T04:55:43;16.20;99.90
40249;DHT22;25969;49.970;11.062;2023-08-01T05:05:43;16.10;99.90
40249;DHT22;25969;49.970;11.062;2023-08-01T05:15:45;16.20;99.90
40249;DHT22;25969;49.970;11.062;2023-08-01T05:25:47;16.20;99.90
40249;DHT22;25969;49.970;11.062;2023-08-01T05:35:49;16.20;99.90
40249;DHT22;25969;49.970;11.062;2023-08-01T05:45:50;16.20;99.90
40249;DHT22;25969;49.970;11.062;2023-08-01T05:55:51;16.20;99.90
40249;DHT22;25969;49.970;11.062;2023-08-01T06:05:52;16.10;99.90
40249;DHT22;25969;49.970;11.062;2023-08-01T06:15:53;16.10;99.90
40249;DHT22;25969;49.970;11.062;2023-08-01T06:25:53;16.10;99.90
40249;DHT22;25969;49.970;11.062;2023-08-01T06:35:54;16.20;99.90
40249;DHT22;25969;49.970;11.062;2023-08-01T06:45:55;16.20;99.90
40249;DHT22;25969;49.970;11.062;2023-08-01T06:55:55;16.20;99.90
40249;DHT22;25969;49.970;11.062;2023-08-01T07:05:57;16.10;99.90
40249;DHT22;25969;49.970;11.062;2023-08-01T07:15:58;16.00;99.90
40249;DHT22;25969;49.970;11.062;2023-08-01T07:25:59;16.10;99.90
40249;DHT22;25969;49.970;11.062;2023-08-01T07:36:00;16.10;99.90
40249;DHT22;25969;49.970;11.062;2023-08-01T07:46:01;16.30;99.90
40249;DHT22;25969;49.970;11.062;2023-08-01T07:56:01;16.40;99.90
40249;DHT22;25969;49.970;11.062;2023-08-01T08:06:02;16.60;99.90
40249;DHT22;25969;49.970;11.062;2023-08-01T08:16:05;16.60;99.90
40249;DHT22;25969;49.970;11.062;2023-08-01T08:26:06;16.50;99.90
40249;DHT22;25969;49.970;11.062;2023-08-01T08:36:07;16.30;99.90
40249;DHT22;25969;49.970;11.062;2023-08-01T08:46:08;16.30;99.90
40249;DHT22;25969;49.970;11.062;2023-08-01T08:56:09;16.90;99.90
40249;DHT22;25969;49.970;11.062;2023-08-01T09:06:15;17.10;99.90
40249;DHT22;25969;49.970;11.062;2023-08-01T09:16:17;16.80;99.90
40249;DHT22;25969;49.970;11.062;2023-08-01T09:26:19;16.90;99.90
40249;DHT22;25969;49.970;11.062;2023-08-01T09:36:23;17.70;99.90
40249;DHT22;25969;49.970;11.062;2023-08-01T09:46:24;17.20;99.90
40249;DHT22;25969;49.970;11.062;2023-08-01T09:56:26;17.00;99.90
40249;DHT22;25969;49.970;11.062;2023-08-01T10:06:33;16.70;99.90
40249;DHT22;25969;49.970;11.062;2023-08-01T10:16:34;17.00;99.90
40249;DHT22;25969;49.970;11.062;2023-08-01T10:26:36;17.40;99.90
40249;DHT22;25969;49.970;11.062;2023-08-01T10:36:37;17.30;99.90
40249;DHT22;25969;49.970;11.062;2023-08-01T10:46:50;16.50;99.90
40249;DHT22;25969;49.970;11.062;2023-08-01T10:56:57;16.20;99.90
40249;DHT22;25969;49.970;11.062;2023-08-01T11:07:04;15.40;99.90
40249;DHT22;25969;49.970;11.062;2023-08-01T11:17:05;15.10;99.90
40249;DHT22;25969;49.970;11.062;2023-08-01T11:27:06;16.50;99.90
40249;DHT22;25969;49.970;11.062;2023-08-01T11:37:07;17.60;99.90
40249;DHT22;25969;49.970;11.062;2023-08-01T11:47:17;20.40;99.90
40249;DHT22;25969;49.970;11.062;2023-08-01T11:57:18;22.90;99.50
40249;DHT22;25969;49.970;11.062;2023-08-01T12:07:19;23.80;96.60
40249;DHT22;25969;49.970;11.062;2023-08-01T12:17:22;25.40;91.90
40249;DHT22;25969;49.970;11.062;2023-08-01T12:27:23;26.60;81.00
40249;DHT22;25969;49.970;11.062;2023-08-01T12:37:24;27.80;70.00
40249;DHT22;25969;49.970;11.062;2023-08-01T12:47:24;27.20;68.20
40249;DHT22;25969;49.970;11.062;2023-08-01T12:57:26;28.70;66.90
40249;DHT22;25969;49.970;11.062;2023-08-01T13:07:26;28.10;64.10
40249;DHT22;25969;49.970;11.062;2023-08-01T13:17:27;27.20;64.10
40249;DHT22;25969;49.970;11.062;2023-08-01T13:27:28;27.30;60.90
40249;DHT22;25969;49.970;11.062;2023-08-01T13:37:29;27.90;58.00
40249;DHT22;25969;49.970;11.062;2023-08-01T13:47:30;24.60;62.90
40249;DHT22;25969;49.970;11.062;2023-08-01T13:57:31;24.50;62.80
40249;DHT22;25969;49.970;11.062;2023-08-01T14:07:34;26.30;60.60
40249;DHT22;25969;49.970;11.062;2023-08-01T14:17:35;23.70;67.70
40249;DHT22;25969;49.970;11.062;2023-08-01T14:27:36;21.30;85.20
40249;DHT22;25969;49.970;11.062;2023-08-01T14:37:37;22.50;90.10
40249;DHT22;25969;49.970;11.062;2023-08-01T14:47:37;25.50;73.70
40249;DHT22;25969;49.970;11.062;2023-08-01T14:57:38;25.40;75.10
40249;DHT22;25969;49.970;11.062;2023-08-01T15:07:39;25.40;72.10
40249;DHT22;25969;49.970;11.062;2023-08-01T15:17:39;24.90;71.10
40249;DHT22;25969;49.970;11.062;2023-08-01T15:27:40;22.70;73.50
40249;DHT22;25969;49.970;11.062;2023-08-01T15:37:41;21.80;75.70
40249;DHT22;25969;49.970;11.062;2023-08-01T15:47:42;22.60;71.70
40249;DHT22;25969;49.970;11.062;2023-08-01T15:57:42;24.60;67.10
40249;DHT22;25969;49.970;11.062;2023-08-01T16:07:44;24.10;64.30
40249;DHT22;25969;49.970;11.062;2023-08-01T16:17:44;23.10;68.20
40249;DHT22;25969;49.970;11.062;2023-08-01T16:27:45;21.70;72.10
40249;DHT22;25969;49.970;11.062;2023-08-01T16:37:46;21.10;74.30
40249;DHT22;25969;49.970;11.062;2023-08-01T16:47:46;21.80;75.20
40249;DHT22;25969;49.970;11.062;2023-08-01T16:57:47;21.60;71.70
40249;DHT22;25969;49.970;11.062;2023-08-01T17:07:48;20.80;74.90
40249;DHT22;25969;49.970;11.062;2023-08-01T17:17:49;19.70;82.60
40249;DHT22;25969;49.970;11.062;2023-08-01T17:27:50;19.10;84.20
40249;DHT22;25969;49.970;11.062;2023-08-01T17:37:53;17.10;99.90
40249;DHT22;25969;49.970;11.062;2023-08-01T17:47:54;16.50;99.90
40249;DHT22;25969;49.970;11.062;2023-08-01T17:57:55;16.90;99.90
40249;DHT22;25969;49.970;11.062;2023-08-01T18:07:56;16.70;99.90
40249;DHT22;25969;49.970;11.062;2023-08-01T18:17:57;16.40;99.90
40249;DHT22;25969;49.970;11.062;2023-08-01T18:27:57;16.30;99.90
40249;DHT22;25969;49.970;11.062;2023-08-01T18:37:58;16.20;99.90
40249;DHT22;25969;49.970;11.062;2023-08-01T18:47:59;16.30;99.90
40249;DHT22;25969;49.970;11.062;2023-08-01T18:58:00;16.10;99.90
40249;DHT22;25969;49.970;11.062;2023-08-01T19:08:02;16.00;99.90
40249;DHT22;25969;49.970;11.062;2023-08-01T19:18:04;15.90;99.90
40249;DHT22;25969;49.970;11.062;2023-08-01T19:28:05;15.90;99.90
40249;DHT22;25969;49.970;11.062;2023-08-01T19:38:06;15.70;99.90
40249;DHT22;25969;49.970;11.062;2023-08-01T19:48:07;15.60;99.90
40249;DHT22;25969;49.970;11.062;2023-08-01T19:58:11;15.60;99.90
40249;DHT22;25969;49.970;11.062;2023-08-01T20:08:12;15.60;99.90
40249;DHT22;25969;49.970;11.062;2023-08-01T20:18:12;15.50;99.90
40249;DHT22;25969;49.970;11.062;2023-08-01T20:28:13;15.50;99.90
40249;DHT22;25969;49.970;11.062;2023-08-01T20:38:14;15.40;99.90
40249;DHT22;25969;49.970;11.062;2023-08-01T20:48:14;15.40;99.90
40249;DHT22;25969;49.970;11.062;2023-08-01T20:58:15;15.40;99.90
40249;DHT22;25969;49.970;11.062;2023-08-01T21:08:19;15.40;99.90
40249;DHT22;25969;49.970;11.062;2023-08-01T21:18:19;15.40;99.90
40249;DHT22;25969;49.970;11.062;2023-08-01T21:28:20;15.50;99.90
40249;DHT22;25969;49.970;11.062;2023-08-01T21:38:21;15.40;99.90
40249;DHT22;25969;49.970;11.062;2023-08-01T21:48:22;15.40;99.90
40249;DHT22;25969;49.970;11.062;2023-08-01T21:58:23;15.40;99.90
